createdAt,value
2022-11-03T00:00:20.152Z,100423.03
2022-11-03T00:05:41.330Z,100410.78
2022-11-03T00:10:43.881Z,100416.88
2022-11-03T00:15:49.966Z,100404.63
2022-11-03T00:20:58.788Z,100392.38
2022-11-03T00:26:09.494Z,100394.03
2022-11-03T00:31:14.461Z,100375.41
2022-11-03T00:36:19.936Z,100349.78
2022-11-03T00:41:24.991Z,100329.59
2022-11-03T00:46:27.963Z,100338.25
2022-11-03T00:51:33.928Z,100322.16
2022-11-03T00:56:38.441Z,100309.97
2022-11-03T01:01:46.757Z,100296.69
2022-11-03T01:06:54.230Z,100288.63
2022-11-03T01:12:01.446Z,100276.91
2022-11-03T01:17:05.684Z,100272.50
2022-11-03T01:22:11.058Z,100262.59
2022-11-03T01:27:16.445Z,100253.06
2022-11-03T01:32:19.068Z,100237.28
2022-11-03T01:37:22.994Z,100220.53
2022-11-03T01:42:25.615Z,100215.56
2022-11-03T01:47:29.879Z,100207.69
2022-11-03T01:52:37.029Z,100192.22
2022-11-03T01:57:42.118Z,100171.13
2022-11-03T02:02:45.065Z,100153.31
2022-11-03T02:07:52.230Z,100151.78
2022-11-03T02:12:54.958Z,100136.78
2022-11-03T02:17:58.899Z,100117.34
2022-11-03T02:23:23.697Z,100090.03
2022-11-03T02:28:29.887Z,100064.41
2022-11-03T02:33:38.665Z,100020.56
2022-11-03T02:38:46.998Z,99992.59
2022-11-03T02:43:51.959Z,99961.31
2022-11-03T02:48:54.529Z,99915.63
2022-11-03T02:54:05.621Z,99859.75
2022-11-03T02:59:12.188Z,99833.31
2022-11-03T03:04:18.514Z,99798.16
2022-11-03T03:09:23.450Z,99771.09
2022-11-03T03:14:30.894Z,99751.16
2022-11-03T03:19:44.858Z,99725.84
2022-11-03T03:24:51.073Z,99690.19
2022-11-03T03:29:58.697Z,99675.56
2022-11-03T03:35:03.008Z,99648.72
2022-11-03T03:40:08.681Z,99638.78
2022-11-03T03:45:14.418Z,99596.63
2022-11-03T03:50:17.342Z,99604.84
2022-11-03T03:55:21.872Z,99577.69
2022-11-03T04:00:25.929Z,99558.47
2022-11-03T04:05:28.600Z,99540.50
2022-11-03T04:10:31.198Z,99536.66
2022-11-03T04:15:52.625Z,99525.44
2022-11-03T04:21:13.014Z,99505.56
2022-11-03T04:26:17.426Z,99506.16
2022-11-03T04:31:22.162Z,99487.06
2022-11-03T04:36:26.306Z,99476.28
2022-11-03T04:41:30.730Z,99461.09
2022-11-03T04:46:34.919Z,99455.69
2022-11-03T04:51:37.534Z,99441.31
2022-11-03T04:56:41.346Z,99420.06
2022-11-03T05:01:46.647Z,99399.06
2022-11-03T05:06:52.413Z,99376.97
2022-11-03T05:11:55.111Z,99360.94
2022-11-03T05:16:59.789Z,99344.38
2022-11-03T05:22:03.674Z,99318.59
2022-11-03T05:27:10.586Z,99295.84
2022-11-03T05:32:17.560Z,99265.88
2022-11-03T05:37:27.052Z,99241.44
2022-11-03T05:42:33.998Z,99220.25
2022-11-03T05:47:38.765Z,99196.50
2022-11-03T05:52:42.174Z,99177.97
2022-11-03T05:57:44.891Z,99128.25
2022-11-03T06:02:50.708Z,99116.69
2022-11-03T06:07:55.332Z,99071.09
2022-11-03T06:13:01.185Z,99045.78
2022-11-03T06:18:14.824Z,99000.91
2022-11-03T06:23:18.605Z,98949.28
2022-11-03T06:28:22.590Z,98923.22
2022-11-03T06:33:28.445Z,98903.13
2022-11-03T06:38:32.762Z,98895.91
2022-11-03T06:43:41.901Z,98876.50
2022-11-03T06:48:46.233Z,98843.31
2022-11-03T06:53:49.294Z,98816.56
2022-11-03T06:58:54.032Z,98803.69
2022-11-03T07:04:01.906Z,98812.50
2022-11-03T07:09:06.136Z,98797.81
2022-11-03T07:14:12.807Z,98806.69
2022-11-03T07:19:21.162Z,98813.84
2022-11-03T07:24:25.925Z,98793.09
2022-11-03T07:29:30.666Z,98788.97
2022-11-03T07:34:34.610Z,98781.22
2022-11-03T07:39:38.544Z,98780.50
2022-11-03T07:44:41.576Z,98769.56
2022-11-03T07:49:46.127Z,98775.59
2022-11-03T07:54:49.042Z,98795.97
2022-11-03T07:59:53.539Z,98818.09
2022-11-03T08:04:58.501Z,98787.56
2022-11-03T08:10:01.185Z,98785.97
2022-11-03T08:15:03.841Z,98782.56
2022-11-03T08:20:08.958Z,98807.25
2022-11-03T08:25:11.541Z,98815.66
2022-11-03T08:30:14.709Z,98807.69
2022-11-03T08:35:18.751Z,98786.13
2022-11-03T08:40:21.375Z,98772.22
2022-11-03T08:45:24.168Z,98780.84
2022-11-03T08:50:28.193Z,98782.75
2022-11-03T08:55:30.822Z,98753.84
2022-11-03T09:00:38.312Z,98757.56
2022-11-03T09:05:44.835Z,98770.97
2022-11-03T09:10:47.396Z,98793.94
2022-11-03T09:15:49.933Z,98830.16
2022-11-03T09:20:53.983Z,98873.41
2022-11-03T09:25:56.528Z,98962.34
2022-11-03T09:30:59.108Z,98997.59
2022-11-03T09:36:03.215Z,99019.75
2022-11-03T09:41:13.964Z,99053.34
2022-11-03T09:46:30.285Z,99090.41
2022-11-03T09:51:36.186Z,99140.75
2022-11-03T09:56:38.746Z,99174.34
2022-11-03T10:01:41.952Z,99204.44
2022-11-03T10:06:45.969Z,99241.50
2022-11-03T10:11:48.794Z,99276.75
2022-11-03T10:16:56.833Z,99291.94
2022-11-03T10:22:00.735Z,99326.41
2022-11-03T10:27:03.414Z,99341.63
2022-11-03T10:32:29.254Z,99362.81
2022-11-03T10:37:33.146Z,99384.19
2022-11-03T10:42:36.140Z,99399.41
2022-11-03T10:47:38.780Z,99397.72
2022-11-03T10:52:42.731Z,99436.63
2022-11-03T10:57:48.079Z,99443.66
2022-11-03T11:02:56.706Z,99461.41
2022-11-03T11:08:02.104Z,99459.69
2022-11-03T11:13:06.548Z,99469.41
2022-11-03T11:18:09.795Z,99462.34
2022-11-03T11:23:49.079Z,99448.25
2022-11-03T11:29:44.789Z,99448.28
2022-11-03T11:34:48.694Z,99437.81
2022-11-03T11:39:51.384Z,99433.41
2022-11-03T11:44:58.669Z,99440.63
2022-11-03T11:50:11.496Z,99444.28
2022-11-03T11:55:19.454Z,99447.75
2022-11-03T12:00:24.710Z,99439.81
2022-11-03T12:05:30.417Z,99441.53
2022-11-03T12:10:33.305Z,99422.13
2022-11-03T12:15:55.371Z,99439.00
2022-11-03T12:20:59.765Z,99449.56
2022-11-03T12:26:02.403Z,99442.44
2022-11-03T12:31:05.412Z,99424.78
2022-11-03T12:36:10.441Z,99430.25
2022-11-03T12:41:22.026Z,99429.66
2022-11-03T12:46:24.902Z,99464.53
2022-11-03T12:51:28.827Z,99514.47
2022-11-03T12:56:31.408Z,99548.97
2022-11-03T13:01:34.112Z,99574.72
2022-11-03T13:06:38.071Z,99577.91
2022-11-03T13:11:57.386Z,99571.47
2022-11-03T13:16:59.993Z,99561.63
2022-11-03T13:22:03.925Z,99559.84
2022-11-03T13:27:06.498Z,99547.41
2022-11-03T13:32:09.386Z,99520.97
2022-11-03T13:37:13.333Z,99520.00
2022-11-03T13:42:15.914Z,99503.09
2022-11-03T13:47:18.750Z,99493.22
2022-11-03T13:52:24.158Z,99474.56
2022-11-03T14:08:14.861Z,99419.00
2022-11-03T14:13:17.445Z,99400.47
2022-11-03T14:18:20.136Z,99399.59
2022-11-03T14:23:24.071Z,99388.88
2022-11-03T14:28:26.717Z,99381.53
2022-11-03T14:33:29.351Z,99373.53
2022-11-03T14:38:33.270Z,99367.34
2022-11-03T14:43:35.882Z,99349.59
2022-11-03T14:48:38.566Z,99326.50
2022-11-03T14:53:42.497Z,99316.72
2022-11-03T14:58:45.097Z,99299.88
2022-11-03T15:03:47.806Z,99276.78
2022-11-03T15:08:56.190Z,99266.28
2022-11-03T15:13:59.334Z,99264.53
2022-11-03T15:19:03.410Z,99261.00
2022-11-03T15:29:30.476Z,99210.59
2022-11-03T15:34:33.305Z,99203.41
2022-11-03T15:39:37.211Z,99191.00
2022-11-03T15:44:39.795Z,99185.69
2022-11-03T15:49:42.361Z,99167.97
2022-11-03T15:54:46.380Z,99165.34
2022-11-03T15:59:50.646Z,99156.53
2022-11-03T16:04:54.451Z,99145.97
2022-11-03T16:09:58.462Z,99147.72
2022-11-03T16:15:01.088Z,99138.88
2022-11-03T16:20:03.758Z,99130.09
2022-11-03T16:25:12.726Z,99144.16
2022-11-03T16:30:17.740Z,99152.13
2022-11-03T16:35:20.497Z,99152.94
2022-11-03T16:40:24.481Z,99149.53
2022-11-03T16:45:30.380Z,99133.69
2022-11-03T16:50:35.066Z,99145.34
2022-11-03T16:55:39.003Z,99151.56
2022-11-03T17:00:41.599Z,99143.53
2022-11-03T17:05:44.271Z,99138.25
2022-11-03T17:10:48.296Z,99140.03
2022-11-03T17:15:50.854Z,99137.41
2022-11-03T17:20:53.477Z,99133.84
2022-11-03T17:25:59.813Z,99124.22
2022-11-03T17:31:02.475Z,99120.63
2022-11-03T17:36:05.507Z,99116.19
2022-11-03T17:41:14.974Z,99110.03
2022-11-03T17:46:20.674Z,99106.50
2022-11-03T17:51:23.528Z,99121.41
2022-11-03T17:56:30.498Z,99097.53
2022-11-03T18:01:33.730Z,99081.59
2022-11-03T18:06:36.439Z,99064.78
2022-11-03T18:11:58.297Z,99031.22
2022-11-03T18:17:00.985Z,98996.81
2022-11-03T18:22:04.070Z,98980.00
2022-11-03T18:27:11.315Z,98956.22
2022-11-03T18:32:17.070Z,98918.28
2022-11-03T18:37:19.691Z,98884.78
2022-11-03T18:42:23.700Z,98871.56
2022-11-03T18:47:26.739Z,98838.09
2022-11-03T18:52:29.558Z,98821.38
2022-11-03T18:57:33.695Z,98788.78
2022-11-03T19:02:36.363Z,98773.78
2022-11-03T19:07:39.832Z,98743.81
2022-11-03T19:12:44.568Z,98707.69
2022-11-03T19:17:48.651Z,98677.69
2022-11-03T19:22:51.238Z,98652.13
2022-11-03T19:27:55.200Z,98638.03
2022-11-03T19:32:58.080Z,98621.31
2022-11-03T19:38:03.010Z,98596.59
2022-11-03T19:43:09.698Z,98559.59
2022-11-03T19:48:29.038Z,98523.50
2022-11-03T19:53:33.134Z,98490.88
2022-11-03T19:58:37.312Z,98467.97
2022-11-03T20:03:39.917Z,98438.88
2022-11-03T20:08:42.520Z,98401.91
2022-11-03T20:13:46.562Z,98356.09
2022-11-03T20:18:49.348Z,98310.34
2022-11-03T20:23:52.578Z,98263.69
2022-11-03T20:28:59.032Z,98202.97
2022-11-03T20:34:01.611Z,98158.09
2022-11-03T20:39:05.093Z,98092.97
2022-11-03T20:44:10.177Z,98048.13
2022-11-03T20:49:12.819Z,97998.00
2022-11-03T20:54:17.463Z,97955.78
2022-11-03T20:59:24.536Z,97894.19
2022-11-03T21:04:28.918Z,97792.22
2022-11-03T21:09:31.582Z,97723.66
2022-11-03T21:14:35.539Z,97648.03
2022-11-03T21:19:52.424Z,97517.88
2022-11-03T21:24:55.005Z,97450.13
2022-11-03T21:29:59.975Z,97360.50
2022-11-03T21:35:02.992Z,97315.59
2022-11-03T21:40:06.437Z,97254.13
2022-11-03T21:45:10.855Z,97213.63
2022-11-03T21:50:13.459Z,97160.81
2022-11-03T21:55:16.158Z,97080.88
2022-11-03T22:00:21.227Z,96984.25
2022-11-03T22:05:23.862Z,96814.81
2022-11-03T22:10:26.468Z,96752.97
2022-11-03T22:15:47.790Z,96630.72
2022-11-03T22:21:07.970Z,96559.72
2022-11-03T22:26:29.073Z,96485.16
2022-11-03T22:31:41.849Z,96419.56
2022-11-03T22:36:44.453Z,96388.94
2022-11-03T22:42:06.572Z,96328.13
2022-11-03T22:47:13.236Z,96324.53
2022-11-03T22:52:17.121Z,96290.25
2022-11-03T22:57:19.738Z,96285.09
2022-11-03T23:02:23.763Z,96243.78
2022-11-03T23:07:31.745Z,96213.81
2022-11-03T23:12:35.724Z,96168.69
2022-11-03T23:17:57.191Z,96127.03
2022-11-03T23:22:59.834Z,96084.59
2022-11-03T23:28:02.397Z,96060.47
2022-11-03T23:33:06.548Z,96051.06
2022-11-03T23:38:09.713Z,96006.25
2022-11-03T23:43:12.506Z,95979.38
2022-11-03T23:48:33.941Z,95973.09
2022-11-03T23:53:36.493Z,95933.19
2022-11-03T23:58:39.067Z,95958.81
